Time;durP1;ratioP1;P1;durP2;ratioP2;P2;SDS_P1;SDS_P2;PMS_P1;PMS_P2;Temp;Humidity;BMP_temperature;BMP_pressure;BME280_temperature;BME280_humidity;BME280_pressure;Samples;Min_cycle;Max_cycle;Signal;HPM_P1;HPM_P2
2021/03/09 00:00:09;;;;;;;45.38;26.48;;;;;;;4.80;70.96;100666.44;5097305;28;20114;-73
2021/03/09 00:02:36;;;;;;;43.00;26.60;;;;;;;4.82;70.15;100659.31;5079274;28;20109;-73
2021/03/09 00:05:03;;;;;;;52.78;26.15;;;;;;;4.75;70.85;100653.38;5079655;28;20076;-73
2021/03/09 00:07:29;;;;;;;45.92;27.08;;;;;;;4.84;70.25;100655.72;5079439;28;20048;-73
2021/03/09 00:09:55;;;;;;;46.05;26.52;;;;;;;4.97;69.97;100663.31;5079206;28;20059;-73
2021/03/09 00:12:22;;;;;;;47.00;28.55;;;;;;;4.84;70.53;100653.09;5096860;28;20440;-73
2021/03/09 00:14:48;;;;;;;44.22;26.35;;;;;;;4.87;70.16;100660.94;5096962;28;20052;-73
2021/03/09 00:17:29;;;;;;;47.10;27.50;;;;;;;4.80;70.82;100648.78;5096863;28;20044;-73
2021/03/09 00:19:56;;;;;;;45.00;26.77;;;;;;;4.80;70.97;100661.16;5096768;28;20063;-73
2021/03/09 00:22:22;;;;;;;49.25;28.02;;;;;;;4.73;70.62;100650.75;5096093;28;20048;-73
2021/03/09 00:24:48;;;;;;;41.75;25.88;;;;;;;4.71;70.85;100649.06;5097115;28;20056;-73
2021/03/09 00:27:15;;;;;;;47.08;27.00;;;;;;;4.79;70.92;100660.28;5062333;28;20433;-73
2021/03/09 00:29:41;;;;;;;51.58;29.58;;;;;;;4.74;70.63;100657.78;5096508;28;20474;-73
2021/03/09 00:32:09;;;;;;;48.35;29.48;;;;;;;4.76;70.63;100666.53;5096697;28;20126;-73
2021/03/09 00:34:36;;;;;;;49.58;27.83;;;;;;;4.80;70.22;100663.81;5096376;28;20052;-73
2021/03/09 00:37:04;;;;;;;47.92;27.20;;;;;;;4.79;70.93;100654.13;5096464;28;20048;-73
2021/03/09 00:39:30;;;;;;;48.65;27.67;;;;;;;4.64;71.35;100660.72;5096257;28;20043;-73
2021/03/09 00:41:56;;;;;;;46.03;28.20;;;;;;;4.61;72.27;100651.97;5096627;28;20048;-73
2021/03/09 00:44:22;;;;;;;52.05;28.30;;;;;;;4.62;71.67;100644.91;5062088;28;20070;-73
2021/03/09 00:46:50;;;;;;;45.22;27.45;;;;;;;4.60;71.75;100652.91;5096341;28;20056;-73
2021/03/09 00:49:16;;;;;;;48.05;29.25;;;;;;;4.60;71.77;100646.72;5096510;28;20143;-73
2021/03/09 00:51:43;;;;;;;51.17;29.70;;;;;;;4.56;71.72;100642.44;5078456;28;20055;-73
2021/03/09 00:54:09;;;;;;;52.00;30.08;;;;;;;4.55;71.98;100652.16;5096359;28;20052;-73
2021/03/09 00:56:36;;;;;;;52.53;28.42;;;;;;;4.49;71.99;100652.31;5078445;28;20109;-73
2021/03/09 00:59:02;;;;;;;51.40;31.42;;;;;;;4.51;72.15;100641.72;5096171;28;20048;-73
2021/03/09 01:01:28;;;;;;;50.10;28.90;;;;;;;4.57;71.73;100644.19;5095988;28;20056;-73
2021/03/09 01:03:54;;;;;;;51.85;29.15;;;;;;;4.64;71.16;100650.16;5078179;28;20056;-73
2021/03/09 01:06:20;;;;;;;48.70;28.88;;;;;;;4.52;71.68;100652.22;5096101;28;20060;-73
2021/03/09 01:08:46;;;;;;;48.60;27.50;;;;;;;4.56;72.14;100647.72;5096155;28;20051;-73
2021/03/09 01:11:13;;;;;;;55.97;29.50;;;;;;;4.61;71.49;100645.81;5077940;28;20098;-73
2021/03/09 01:13:39;;;;;;;54.00;30.00;;;;;;;4.56;71.17;100648.59;5095602;28;20082;-73
2021/03/09 01:16:05;;;;;;;56.03;30.08;;;;;;;4.55;71.37;100652.16;5095652;28;20176;-73
2021/03/09 01:18:31;;;;;;;53.17;30.33;;;;;;;4.42;71.66;100646.31;5095680;28;20062;-73
2021/03/09 01:20:58;;;;;;;55.10;29.85;;;;;;;4.51;71.81;100655.78;5095679;28;20060;-73
2021/03/09 01:23:24;;;;;;;60.67;27.95;;;;;;;4.48;72.18;100645.31;5095615;28;20126;-73
2021/03/09 01:25:50;;;;;;;53.50;30.42;;;;;;;4.44;73.20;100655.09;5095813;28;20102;-73
2021/03/09 01:28:16;;;;;;;55.25;29.63;;;;;;;4.36;72.97;100641.19;5095572;28;20429;-73
2021/03/09 01:30:42;;;;;;;50.88;31.02;;;;;;;4.40;73.49;100645.50;5095322;28;20434;-73
2021/03/09 01:33:09;;;;;;;56.72;31.13;;;;;;;4.31;74.24;100648.41;5094666;28;20060;-73
2021/03/09 01:35:36;;;;;;;51.72;29.58;;;;;;;4.40;73.77;100645.50;5077430;28;20052;-73
2021/03/09 01:38:03;;;;;;;52.25;31.73;;;;;;;4.33;75.05;100638.66;5095560;28;20150;-73
2021/03/09 01:40:30;;;;;;;52.60;30.25;;;;;;;4.32;74.76;100644.84;5077589;28;20101;-73
2021/03/09 01:42:56;;;;;;;51.08;30.85;;;;;;;4.24;76.09;100639.75;5095561;28;20056;-73
2021/03/09 01:45:23;;;;;;;63.17;32.70;;;;;;;4.18;76.55;100643.44;5076915;28;20044;-73
2021/03/09 01:47:50;;;;;;;54.65;31.77;;;;;;;4.13;76.68;100637.41;5095453;28;20052;-73
2021/03/09 01:50:18;;;;;;;60.30;31.48;;;;;;;4.14;76.86;100635.66;5077497;28;20052;-73
2021/03/09 01:52:47;;;;;;;57.10;30.33;;;;;;;4.02;77.90;100634.19;5094357;28;20048;-73
2021/03/09 01:55:14;;;;;;;52.97;31.30;;;;;;;3.93;78.73;100635.31;5095078;28;20135;-73
2021/03/09 01:57:42;;;;;;;56.05;31.27;;;;;;;3.89;78.90;100626.59;5077568;28;20067;-73
2021/03/09 02:00:09;;;;;;;49.33;28.60;;;;;;;3.89;78.74;100631.00;5077395;28;20063;-73
2021/03/09 02:02:36;;;;;;;54.70;31.58;;;;;;;3.88;79.75;100622.19;5095054;28;20060;-72
2021/03/09 02:05:07;;;;;;;50.72;29.58;;;;;;;3.85;79.79;100618.78;5095087;28;20383;-73
2021/03/09 02:07:33;;;;;;;;;;;;;;;3.82;80.82;100622.38;5095476;28;20421;-72
2021/03/09 02:10:01;;;;;;;46.22;27.35;;;;;;;3.63;81.09;100593.81;5095486;28;19924;-73
2021/03/09 02:12:45;;;;;;;55.20;29.77;;;;;;;3.86;80.61;100616.09;5096284;28;20048;-73
2021/03/09 02:15:35;;;;;;;53.15;30.60;;;;;;;3.75;81.57;100616.38;5096371;28;20055;-73
2021/03/09 02:18:20;;;;;;;56.80;31.52;;;;;;;3.69;82.81;100607.75;5049360;28;20160;-73
2021/03/09 02:21:20;;;;;;;56.10;30.10;;;;;;;3.65;81.70;100606.97;5094938;28;20082;-73
2021/03/09 02:24:22;;;;;;;52.40;29.77;;;;;;;3.63;82.30;100606.13;5095017;28;20044;-73
2021/03/09 02:26:51;;;;;;;55.65;29.30;;;;;;;3.60;82.64;100603.56;5094271;28;20056;-73
2021/03/09 02:29:23;;;;;;;53.35;31.00;;;;;;;3.53;82.74;100609.00;5094964;28;20052;-73
2021/03/09 02:31:53;;;;;;;52.45;29.95;;;;;;;3.56;82.20;100600.13;5077339;28;20060;-72
2021/03/09 02:34:34;;;;;;;49.80;31.75;;;;;;;3.56;84.02;100599.25;5095353;28;20090;-73
2021/03/09 02:37:10;;;;;;;53.50;31.25;;;;;;;3.48;84.07;100596.81;5094980;28;20353;-73
2021/03/09 02:39:41;;;;;;;56.38;31.60;;;;;;;3.37;84.79;100584.75;5094720;28;20421;-73
2021/03/09 02:42:08;;;;;;;;;;;;;;;3.38;85.08;100601.47;5095401;28;20131;-73
2021/03/09 02:44:38;;;;;;;57.25;30.02;;;;;;;3.38;84.58;100586.47;5077241;28;19924;-73
2021/03/09 02:47:05;;;;;;;55.55;31.13;;;;;;;3.33;85.42;100591.00;5098552;28;20055;-72
2021/03/09 02:49:33;;;;;;;55.63;31.90;;;;;;;3.32;86.98;100591.06;5081025;28;20062;-72
2021/03/09 02:52:03;;;;;;;51.78;31.00;;;;;;;3.34;85.55;100584.84;5098533;28;20082;-72
2021/03/09 02:54:31;;;;;;;55.25;31.83;;;;;;;3.26;87.73;100592.03;5098512;28;20047;-72
2021/03/09 02:56:59;;;;;;;57.08;31.38;;;;;;;3.18;86.50;100584.34;5098567;28;20051;-72
2021/03/09 02:59:27;;;;;;;58.15;32.60;;;;;;;3.04;86.40;100576.72;5098711;28;20048;-72
2021/03/09 03:01:54;;;;;;;58.17;34.67;;;;;;;3.03;88.13;100569.72;5098005;28;20056;-72
2021/03/09 03:04:22;;;;;;;63.38;35.05;;;;;;;2.97;87.96;100568.09;5098304;28;20437;-72
2021/03/09 03:06:50;;;;;;;60.72;35.28;;;;;;;2.89;88.46;100561.25;5098098;28;20403;-72
2021/03/09 03:09:19;;;;;;;60.15;36.17;;;;;;;3.02;88.50;100573.25;5098087;28;20090;-72
2021/03/09 03:11:47;;;;;;;60.47;34.70;;;;;;;3.00;88.43;100575.06;5098404;28;20101;-72
2021/03/09 03:14:14;;;;;;;61.25;34.30;;;;;;;2.89;89.00;100563.91;5097947;28;20051;-72
2021/03/09 03:16:42;;;;;;;62.78;35.05;;;;;;;3.05;88.94;100572.31;5098039;28;20135;-72
2021/03/09 03:19:09;;;;;;;62.38;36.75;;;;;;;2.99;88.79;100571.56;5098136;28;20052;-72
2021/03/09 03:21:38;;;;;;;60.67;36.20;;;;;;;2.89;88.46;100559.47;5079903;28;20044;-72
2021/03/09 03:24:06;;;;;;;62.25;37.78;;;;;;;2.87;89.18;100560.44;5097992;28;20047;-72
2021/03/09 03:26:37;;;;;;;65.85;40.20;;;;;;;2.90;89.78;100566.50;5097929;28;20105;-72
2021/03/09 03:29:05;;;;;;;;;;;;;;;2.93;90.44;100562.91;5098235;28;20059;-72
2021/03/09 03:31:31;;;;;;;65.43;36.60;;;;;;;2.96;89.18;100553.16;5097677;28;19941;-72
2021/03/09 03:33:58;;;;;;;61.60;37.38;;;;;;;2.97;89.60;100554.91;5079973;28;20082;-72
2021/03/09 03:36:25;;;;;;;65.47;37.85;;;;;;;2.97;89.08;100556.69;5097858;28;20354;-72
2021/03/09 03:38:56;;;;;;;68.53;39.55;;;;;;;2.87;89.62;100547.25;5097701;28;20316;-72
2021/03/09 03:41:22;;;;;;;64.82;38.80;;;;;;;2.84;90.15;100551.69;5077435;28;20105;-72
2021/03/09 03:43:49;;;;;;;67.00;38.45;;;;;;;2.87;89.90;100539.34;5077274;28;20045;-72
2021/03/09 03:46:15;;;;;;;69.35;38.75;;;;;;;2.87;90.17;100544.63;5077569;28;20399;-72
2021/03/09 03:48:42;;;;;;;68.65;38.22;;;;;;;2.85;89.69;100545.50;5077184;28;20058;-72
2021/03/09 03:51:13;;;;;;;68.70;39.20;;;;;;;2.85;90.40;100549.91;5077074;28;20143;-72
2021/03/09 03:54:17;;;;;;;62.35;38.28;;;;;;;2.87;90.10;100542.84;5077265;28;20067;-72
2021/03/09 03:56:49;;;;;;;57.42;36.17;;;;;;;2.84;89.88;100545.56;5076364;28;20056;-72
2021/03/09 03:59:24;;;;;;;61.95;37.30;;;;;;;2.84;89.64;100535.84;5076853;28;20060;-73
2021/03/09 04:01:52;;;;;;;65.93;38.15;;;;;;;2.78;90.66;100545.69;5077071;28;20057;-72
2021/03/09 04:04:22;;;;;;;66.05;37.85;;;;;;;2.78;89.48;100546.53;5077057;28;20045;-72
2021/03/09 04:06:51;;;;;;;65.10;38.30;;;;;;;2.74;90.24;100544.88;5077877;28;20056;-72
2021/03/09 04:09:18;;;;;;;68.68;40.13;;;;;;;2.77;90.10;100538.69;5077969;28;20067;-72
2021/03/09 04:11:49;;;;;;;67.03;39.40;;;;;;;2.80;90.28;100535.97;5077133;28;20048;-72
2021/03/09 04:14:16;;;;;;;;;;;;;;;2.79;90.96;100535.09;5077239;28;20054;-72
2021/03/09 04:16:45;;;;;;;61.20;36.22;;;;;;;2.84;90.71;100533.22;5076889;28;19929;-72
2021/03/09 04:19:13;;;;;;;68.32;38.80;;;;;;;2.82;90.28;100526.25;5077236;28;20067;-72
2021/03/09 04:21:41;;;;;;;61.00;37.17;;;;;;;2.85;89.62;100526.19;5076947;28;20058;-71
2021/03/09 04:24:10;;;;;;;65.38;36.75;;;;;;;2.83;89.79;100528.84;5076752;28;20044;-72
2021/03/09 04:26:36;;;;;;;61.45;36.67;;;;;;;2.77;89.58;100529.00;5077042;28;20385;-73
2021/03/09 04:29:03;;;;;;;65.32;39.17;;;;;;;2.75;89.97;100519.38;5077093;28;20048;-72
2021/03/09 04:31:30;;;;;;;58.67;35.33;;;;;;;2.71;89.60;100516.84;5076891;28;20055;-72
2021/03/09 04:33:57;;;;;;;67.10;39.17;;;;;;;2.72;90.52;100509.78;5076940;28;20052;-72
2021/03/09 04:36:25;;;;;;;65.65;38.38;;;;;;;2.72;89.38;100509.78;5059104;28;20049;-71
2021/03/09 04:38:52;;;;;;;68.32;40.60;;;;;;;2.71;90.35;100506.28;5076288;28;20053;-72
2021/03/09 04:41:18;;;;;;;68.32;41.78;;;;;;;2.74;90.01;100513.25;5079097;28;20052;-71
2021/03/09 04:43:44;;;;;;;69.45;40.83;;;;;;;2.68;90.44;100508.97;5079234;28;20457;-72
2021/03/09 04:46:10;;;;;;;71.15;40.40;;;;;;;2.65;90.64;100509.06;5096699;28;20056;-73
2021/03/09 04:48:38;;;;;;;64.55;38.70;;;;;;;2.75;89.87;100503.56;5096303;28;20048;-73
2021/03/09 04:51:14;;;;;;;63.97;36.38;;;;;;;2.67;90.28;100503.75;5096499;28;20151;-72
2021/03/09 04:53:41;;;;;;;61.90;36.90;;;;;;;2.68;90.73;100508.13;5096021;28;20051;-72
2021/03/09 04:56:08;;;;;;;62.47;37.65;;;;;;;2.69;90.86;100507.22;5078201;28;20052;-72
2021/03/09 04:58:35;;;;;;;63.95;38.85;;;;;;;2.67;90.87;100501.97;5096002;28;20056;-71
2021/03/09 05:01:02;;;;;;;59.13;35.95;;;;;;;2.74;90.26;100491.28;5095884;28;20060;-72
2021/03/09 05:03:28;;;;;;;67.00;38.38;;;;;;;2.68;90.40;100493.16;5095874;28;20384;-71
2021/03/09 05:05:54;;;;;;;61.72;38.42;;;;;;;2.70;90.88;100496.66;5095790;28;20048;-72
2021/03/09 05:08:21;;;;;;;62.30;37.13;;;;;;;2.62;90.75;100492.44;5077802;28;20105;-72
2021/03/09 05:10:48;;;;;;;67.20;38.97;;;;;;;2.54;91.30;100489.97;5078170;28;20105;-72
2021/03/09 05:13:15;;;;;;;69.53;40.63;;;;;;;2.50;91.58;100483.91;5095708;28;20052;-72
2021/03/09 05:15:42;;;;;;;71.15;40.30;;;;;;;2.62;91.95;100490.66;5095561;28;20043;-72
2021/03/09 05:18:08;;;;;;;68.25;38.78;;;;;;;2.70;91.66;100491.38;5095924;28;20136;-71
2021/03/09 05:20:36;;;;;;;63.50;38.15;;;;;;;2.60;91.72;100484.56;5095919;28;20055;-71
2021/03/09 05:23:02;;;;;;;68.35;41.35;;;;;;;2.56;91.41;100493.47;5077943;28;20060;-71
2021/03/09 05:25:28;;;;;;;69.35;41.00;;;;;;;2.56;91.91;100496.09;5077666;28;20051;-72
2021/03/09 05:27:54;;;;;;;67.78;39.78;;;;;;;2.61;91.51;100491.56;5095519;28;20059;-72
2021/03/09 05:30:22;;;;;;;62.90;38.58;;;;;;;2.62;91.66;100479.28;5077821;28;20127;-72
2021/03/09 05:32:48;;;;;;;64.78;38.05;;;;;;;2.64;90.98;100485.38;5095217;28;20504;-72
2021/03/09 05:35:16;;;;;;;64.18;38.33;;;;;;;2.68;91.39;100487.88;5095458;28;20044;-72
2021/03/09 05:37:44;;;;;;;67.40;40.38;;;;;;;2.58;91.46;100479.31;5095472;28;20052;-72
2021/03/09 05:40:11;;;;;;;69.97;42.10;;;;;;;2.56;91.33;100475.88;5077514;28;20052;-72
2021/03/09 05:42:37;;;;;;;64.18;39.78;;;;;;;2.54;90.80;100485.59;5094294;28;20052;-71
2021/03/09 05:45:05;;;;;;;64.93;40.88;;;;;;;2.52;91.40;100474.22;5094995;28;20051;-72
2021/03/09 05:47:35;;;;;;;71.00;42.25;;;;;;;2.53;91.37;100468.03;5060375;28;20440;-72
2021/03/09 05:50:02;;;;;;;77.38;43.38;;;;;;;2.50;91.12;100472.53;5095489;28;20059;-71
2021/03/09 05:52:32;;;;;;;66.60;41.40;;;;;;;2.51;91.53;100467.19;5091506;28;20150;-71
2021/03/09 05:54:58;;;;;;;69.43;41.03;;;;;;;2.58;91.63;100467.94;5094964;28;20059;-71
2021/03/09 05:57:25;;;;;;;69.13;41.28;;;;;;;2.58;90.95;100466.16;5095035;28;20040;-71
2021/03/09 05:59:53;;;;;;;72.38;44.13;;;;;;;2.51;91.26;100467.19;5095131;28;20044;-72
2021/03/09 06:02:19;;;;;;;77.18;44.60;;;;;;;2.58;91.98;100466.16;5095183;28;20055;-71
2021/03/09 06:04:45;;;;;;;70.22;44.10;;;;;;;2.58;91.92;100470.56;5095168;28;20044;-71
2021/03/09 06:07:12;;;;;;;76.60;45.28;;;;;;;2.61;91.71;100459.09;5095021;28;20395;-72
2021/03/09 06:09:42;;;;;;;78.43;45.63;;;;;;;2.53;91.36;100460.13;5094945;28;20098;-71
2021/03/09 06:12:12;;;;;;;80.68;46.58;;;;;;;2.50;91.81;100465.47;5095075;28;20127;-75
2021/03/09 06:15:03;;;;;;;84.65;47.35;;;;;;;2.48;92.70;100461.13;5076501;28;20448;-70
2021/03/09 06:17:30;;;;;;;83.82;47.33;;;;;;;2.51;92.62;100458.44;5095312;28;20056;-70
2021/03/09 06:20:16;;;;;;;77.43;45.63;;;;;;;2.50;92.70;100447.03;5096276;28;20051;-70
2021/03/09 06:22:53;;;;;;;83.93;47.20;;;;;;;2.39;92.91;100451.69;5099219;28;20126;-76
2021/03/09 06:25:23;;;;;;;80.07;45.28;;;;;;;2.35;92.68;100442.09;5096249;28;20044;-72
2021/03/09 06:27:50;;;;;;;77.07;44.42;;;;;;;2.40;93.05;100442.88;5098991;28;20051;-73
2021/03/09 06:30:25;;;;;;;75.65;44.63;;;;;;;2.42;93.06;100443.69;5098826;28;20051;-75
2021/03/09 06:32:52;;;;;;;74.70;44.20;;;;;;;2.43;92.66;100448.06;5099179;28;20059;-74
2021/03/09 06:35:25;;;;;;;77.47;44.30;;;;;;;2.40;92.73;100445.50;5090681;28;20127;-72
2021/03/09 06:37:51;;;;;;;75.53;44.72;;;;;;;2.36;92.92;100441.19;5098803;28;20417;-73
2021/03/09 06:40:17;;;;;;;71.80;43.00;;;;;;;2.33;92.81;100447.41;5080700;28;20494;-73
2021/03/09 06:42:44;;;;;;;82.13;46.08;;;;;;;2.29;93.19;100448.38;5099320;28;20051;-75
2021/03/09 06:45:12;;;;;;;74.60;44.38;;;;;;;2.38;93.00;100452.56;5099324;28;20106;-73
2021/03/09 06:47:42;;;;;;;75.93;43.13;;;;;;;2.36;93.22;100452.63;5078819;28;20066;-72
2021/03/09 06:50:15;;;;;;;75.13;45.30;;;;;;;2.39;93.27;100454.31;5060612;28;20065;-72
2021/03/09 06:52:43;;;;;;;75.95;43.38;;;;;;;2.38;93.50;100442.03;5078229;28;20090;-73
2021/03/09 06:55:11;;;;;;;79.82;43.30;;;;;;;2.38;93.32;100444.66;5077077;28;20056;-71
2021/03/09 06:57:41;;;;;;;74.22;43.67;;;;;;;2.41;93.13;100457.78;5076335;28;20098;-73
2021/03/09 07:00:10;;;;;;;73.75;44.90;;;;;;;2.42;93.20;100464.78;5077223;28;20060;-73
2021/03/09 07:02:37;;;;;;;73.15;43.05;;;;;;;2.41;93.45;100471.81;5076905;28;20053;-74
2021/03/09 07:05:09;;;;;;;84.97;45.72;;;;;;;2.40;93.72;100466.59;5078042;28;20040;-71
2021/03/09 07:07:37;;;;;;;75.90;43.20;;;;;;;2.33;94.18;100454.47;5060202;28;20078;-72
2021/03/09 07:10:04;;;;;;;79.15;44.22;;;;;;;2.39;94.18;100465.72;5063681;28;20076;-73
2021/03/09 07:12:30;;;;;;;71.68;42.50;;;;;;;2.41;94.25;100473.59;5104656;28;20052;-72
2021/03/09 07:14:57;;;;;;;79.35;44.95;;;;;;;2.39;94.43;100460.44;5081381;28;20044;-72
2021/03/09 07:17:29;;;;;;;76.10;41.85;;;;;;;2.34;93.80;100462.31;5101904;28;20058;-72
2021/03/09 07:19:57;;;;;;;69.88;39.70;;;;;;;2.37;94.07;100466.63;5100804;28;20135;-74
2021/03/09 07:22:44;;;;;;;70.78;41.38;;;;;;;2.41;94.72;100468.31;5097823;28;20097;-76
2021/03/09 07:25:13;;;;;;;68.63;41.85;;;;;;;2.38;94.25;100473.63;5098362;28;20052;-74
2021/03/09 07:27:48;;;;;;;72.10;41.38;;;;;;;2.44;95.15;100479.66;5097749;28;20060;-75
2021/03/09 07:30:16;;;;;;;71.93;42.17;;;;;;;2.43;94.91;100477.91;5098118;28;20044;-74
2021/03/09 07:32:47;;;;;;;78.20;42.60;;;;;;;2.38;94.65;100474.50;5097699;28;20044;-76
2021/03/09 07:35:14;;;;;;;78.15;44.65;;;;;;;2.37;94.65;100461.38;5097775;28;20420;-75
2021/03/09 07:37:42;;;;;;;70.70;41.03;;;;;;;2.42;94.57;100480.59;5098090;28;20052;-75
2021/03/09 07:40:13;;;;;;;69.43;38.83;;;;;;;2.38;95.00;100471.00;5097300;28;20394;-74
2021/03/09 07:42:40;;;;;;;66.50;38.28;;;;;;;2.37;94.62;100472.78;5096746;28;20365;-74
2021/03/09 07:45:13;;;;;;;74.70;39.85;;;;;;;2.26;95.21;100466.88;5096292;28;20036;-75
2021/03/09 07:47:43;;;;;;;71.60;39.30;;;;;;;2.24;95.61;100472.16;5097157;28;20060;-81
2021/03/09 07:50:12;;;;;;;66.97;39.58;;;;;;;2.34;95.75;100478.09;5085647;28;20076;-75
2021/03/09 07:52:38;;;;;;;76.55;40.60;;;;;;;2.35;95.95;100474.59;5078853;28;20416;-76
2021/03/09 07:55:03;;;;;;;72.57;41.60;;;;;;;2.47;96.65;100480.47;5079536;28;20036;-75
2021/03/09 07:57:31;;;;;;;68.20;39.22;;;;;;;2.51;95.78;100475.09;5079572;28;20125;-72
2021/03/09 08:00:16;;;;;;;69.90;39.60;;;;;;;2.63;95.78;100473.09;5079164;28;20062;-72
2021/03/09 08:02:57;;;;;;;73.03;40.05;;;;;;;2.62;94.66;100474.00;5097085;28;20141;-75
2021/03/09 08:05:26;;;;;;;65.65;39.97;;;;;;;2.60;95.14;100475.81;5097607;28;20427;-76
2021/03/09 08:07:53;;;;;;;72.32;40.85;;;;;;;2.52;94.54;100466.31;5097095;28;20044;-73
2021/03/09 08:10:37;;;;;;;73.20;41.08;;;;;;;2.53;95.33;100475.94;5079347;28;20106;-70
2021/03/09 08:13:08;;;;;;;64.68;37.90;;;;;;;2.52;94.63;100476.84;5079077;28;20048;-72
2021/03/09 08:15:36;;;;;;;69.32;39.58;;;;;;;2.37;95.16;100459.63;5096952;28;20048;-71
2021/03/09 08:18:19;;;;;;;60.58;34.60;;;;;;;2.52;95.00;100483.88;5096823;28;20105;-72
2021/03/09 08:20:54;;;;;;;71.70;40.60;;;;;;;2.54;96.17;100484.69;5096742;28;20429;-69
2021/03/09 08:23:35;;;;;;;72.55;40.78;;;;;;;2.50;95.64;100483.91;5096652;28;20131;-70
2021/03/09 08:26:29;;;;;;;75.70;39.60;;;;;;;2.48;96.41;100485.72;5095665;28;20048;-73
2021/03/09 08:28:56;;;;;;;67.40;40.35;;;;;;;2.51;96.42;100483.00;5065786;28;20429;-72
2021/03/09 08:31:26;;;;;;;70.78;39.40;;;;;;;2.53;95.58;100481.22;5095596;28;20047;-70
2021/03/09 08:34:13;;;;;;;72.47;38.85;;;;;;;2.46;95.63;100478.75;5096103;28;20136;-73
2021/03/09 08:36:40;;;;;;;76.13;41.83;;;;;;;2.42;95.75;100473.56;5096267;28;20055;-73
2021/03/09 08:39:11;;;;;;;73.07;41.88;;;;;;;2.44;96.41;100477.00;5096653;28;20063;-74
2021/03/09 08:41:43;;;;;;;73.93;41.05;;;;;;;2.49;97.02;100476.91;5096113;28;20056;-74
2021/03/09 08:44:15;;;;;;;73.63;41.90;;;;;;;2.53;96.26;100473.31;5095631;28;20058;-72
2021/03/09 08:47:04;;;;;;;71.20;40.25;;;;;;;2.56;96.89;100477.66;5075971;28;20048;-75
2021/03/09 08:49:36;;;;;;;72.45;41.08;;;;;;;2.58;97.08;100478.47;5076260;28;20337;-74
2021/03/09 08:52:07;;;;;;;69.68;39.33;;;;;;;2.66;96.48;100467.78;5075916;28;20507;-71
2021/03/09 08:54:42;;;;;;;76.10;41.45;;;;;;;2.67;96.15;100458.97;5075705;28;20051;-77
2021/03/09 08:57:23;;;;;;;70.05;37.97;;;;;;;2.72;96.00;100460.56;5083257;28;20097;-74
2021/03/09 08:59:59;;;;;;;78.60;42.15;;;;;;;2.59;95.98;100448.59;5078141;28;20056;-75
2021/03/09 09:02:27;;;;;;;82.80;41.38;;;;;;;2.68;96.30;100461.53;5095463;28;20056;-74
2021/03/09 09:05:02;;;;;;;80.82;42.67;;;;;;;2.63;95.86;100460.78;5095240;28;20052;-76
2021/03/09 09:07:36;;;;;;;75.55;42.45;;;;;;;2.67;96.06;100456.31;5095687;28;20048;-72
2021/03/09 09:10:16;;;;;;;73.68;41.47;;;;;;;2.69;96.18;100454.50;5096815;28;20121;-73
2021/03/09 09:12:44;;;;;;;78.45;41.15;;;;;;;2.69;97.56;100457.13;5084095;28;20055;-73
2021/03/09 09:15:28;;;;;;;84.50;43.25;;;;;;;2.66;96.78;100444.91;5076624;28;20101;-73
2021/03/09 09:18:06;;;;;;;76.72;40.22;;;;;;;2.75;96.24;100451.72;5094789;28;20048;-73
2021/03/09 09:20:36;;;;;;;83.25;44.65;;;;;;;2.82;97.88;100455.94;5080638;28;20819;-73
2021/03/09 09:23:13;;;;;;;76.50;43.40;;;;;;;2.83;96.81;100454.19;5093733;28;20063;-74
2021/03/09 09:25:45;;;;;;;78.20;42.88;;;;;;;2.91;96.97;100452.22;5094500;28;20345;-73
2021/03/09 09:28:31;;;;;;;85.18;44.45;;;;;;;2.95;96.92;100450.38;5095547;28;20051;-73
2021/03/09 09:30:59;;;;;;;79.05;41.38;;;;;;;2.88;96.67;100448.81;5095809;28;20048;-72
2021/03/09 09:34:07;;;;;;;76.57;41.28;;;;;;;2.89;97.00;100459.28;5095539;28;20048;-74
2021/03/09 09:36:34;;;;;;;77.07;42.25;;;;;;;2.93;96.38;100454.81;5093029;28;20047;-73
2021/03/09 09:39:00;;;;;;;77.85;41.25;;;;;;;2.87;96.46;100452.34;5095813;28;20048;-74
2021/03/09 09:41:26;;;;;;;86.85;43.78;;;;;;;2.93;96.92;100460.06;5094719;28;20441;-75
2021/03/09 09:43:53;;;;;;;75.30;41.85;;;;;;;2.94;96.98;100440.75;5095844;28;20135;-73
2021/03/09 09:46:25;;;;;;;83.75;45.58;;;;;;;3.08;97.10;100454.44;5078111;28;20151;-73
2021/03/09 09:48:52;;;;;;;81.03;42.97;;;;;;;3.10;97.27;100442.06;5095667;28;20051;-75
2021/03/09 09:51:22;;;;;;;81.05;42.90;;;;;;;3.12;96.69;100453.44;5095887;28;20056;-71
2021/03/09 09:53:50;;;;;;;83.00;45.47;;;;;;;3.21;96.15;100448.88;5095279;28;20052;-73
2021/03/09 09:56:17;;;;;;;79.07;42.65;;;;;;;3.20;95.62;100447.09;5077340;28;20425;-72
2021/03/09 09:58:47;;;;;;;78.63;41.95;;;;;;;3.18;96.26;100451.56;5107955;28;20052;-70
2021/03/09 10:01:20;;;;;;;83.85;44.47;;;;;;;3.19;96.12;100453.28;5105072;28;20071;-73
2021/03/09 10:03:53;;;;;;;84.10;45.45;;;;;;;3.24;96.42;100446.13;5082872;28;20071;-75
2021/03/09 10:06:19;;;;;;;89.03;47.38;;;;;;;3.33;96.64;100459.06;5095631;28;20079;-74
2021/03/09 10:08:46;;;;;;;85.78;44.80;;;;;;;3.31;95.94;100450.34;5094282;28;20059;-75
2021/03/09 10:11:12;;;;;;;81.35;44.20;;;;;;;3.29;96.10;100446.88;5077214;28;20144;-73
2021/03/09 10:13:39;;;;;;;84.55;44.70;;;;;;;3.28;96.32;100445.16;5095271;28;20098;-73
2021/03/09 10:16:05;;;;;;;83.30;42.50;;;;;;;3.29;96.06;100451.28;5077440;28;20052;-72
2021/03/09 10:18:34;;;;;;;86.97;43.53;;;;;;;3.31;97.20;100460.03;5098478;28;20055;-73
2021/03/09 10:21:11;;;;;;;89.27;45.77;;;;;;;3.36;97.31;100456.38;5108459;28;20058;-74
2021/03/09 10:24:22;;;;;;;84.25;43.72;;;;;;;3.42;97.65;100459.75;5120434;28;20101;-74
2021/03/09 10:26:50;;;;;;;87.22;44.92;;;;;;;3.50;97.79;100463.06;5053431;28;20060;-75
2021/03/09 10:29:18;;;;;;;87.82;45.28;;;;;;;3.53;96.66;100466.47;5107721;28;20428;-75
2021/03/09 10:31:51;;;;;;;87.13;44.28;;;;;;;3.55;96.30;100462.94;5115376;28;20120;-74
2021/03/09 10:34:19;;;;;;;81.68;44.95;;;;;;;3.56;96.20;100460.25;5118140;28;20048;-73
2021/03/09 10:37:00;;;;;;;80.82;43.08;;;;;;;3.56;97.04;100465.53;5101073;28;20504;-75
2021/03/09 10:39:28;;;;;;;62.22;32.22;;;;;;;3.54;96.26;100459.41;5117177;28;20054;-77
2021/03/09 10:41:55;;;;;;;85.35;44.35;;;;;;;3.61;96.96;100452.19;5115473;28;20573;-75
2021/03/09 10:44:35;;;;;;;86.43;44.70;;;;;;;3.60;96.69;100451.31;5115486;28;20332;-73
2021/03/09 10:47:04;;;;;;;56.78;30.60;;;;;;;3.76;97.06;100450.91;5114693;28;20079;-78
2021/03/09 10:49:32;;;;;;;85.80;42.97;;;;;;;3.75;96.49;100449.16;5115050;28;20054;-75
2021/03/09 10:52:05;;;;;;;79.65;42.70;;;;;;;3.80;96.05;100448.16;5115510;28;20094;-72
2021/03/09 10:54:32;;;;;;;75.28;41.38;;;;;;;3.74;96.52;100444.78;5115272;28;20059;-73
2021/03/09 10:57:02;;;;;;;81.65;42.33;;;;;;;3.75;96.23;100447.41;5105753;28;20482;-75
2021/03/09 10:59:28;;;;;;;88.90;45.17;;;;;;;3.84;97.38;100453.31;5095196;28;20055;-73
2021/03/09 11:01:54;;;;;;;82.20;41.28;;;;;;;4.04;96.57;100455.41;5094580;28;20066;-77
2021/03/09 11:04:21;;;;;;;82.57;42.85;;;;;;;4.04;96.71;100445.69;5094656;28;20135;-74
2021/03/09 11:06:47;;;;;;;75.10;40.33;;;;;;;4.17;96.65;100445.34;5096306;28;20085;-75
2021/03/09 11:09:13;;;;;;;81.68;43.63;;;;;;;4.25;95.56;100448.59;5094228;28;20047;-73
2021/03/09 11:11:40;;;;;;;76.90;41.75;;;;;;;4.21;95.76;100449.63;5090998;28;20052;-74
2021/03/09 11:14:06;;;;;;;81.18;42.25;;;;;;;4.19;96.00;100448.78;5080227;28;20058;-75
2021/03/09 11:16:33;;;;;;;82.60;43.47;;;;;;;4.27;96.26;100449.44;5098592;28;20150;-74
2021/03/09 11:19:00;;;;;;;76.75;41.35;;;;;;;4.20;96.24;100440.81;5107324;28;20097;-75
2021/03/09 11:21:27;;;;;;;80.63;42.80;;;;;;;4.41;96.32;100456.94;5108086;28;20075;-76
2021/03/09 11:23:54;;;;;;;76.55;42.08;;;;;;;4.34;95.57;100439.53;5098463;28;20078;-77
2021/03/09 11:26:22;;;;;;;79.68;42.20;;;;;;;4.40;95.92;100439.34;5081052;28;20048;-77
2021/03/09 11:28:50;;;;;;;84.22;43.88;;;;;;;4.42;95.05;100440.16;5069153;28;20055;-72
2021/03/09 11:31:17;;;;;;;83.57;42.80;;;;;;;4.38;94.64;100427.97;5109443;28;20387;-72